Etusivu
METAR-TAF:

METAR-TAF

Lentoasemat :

Flemingsburg, Kentucky, Yhdysvallat

Leveyspiiri: 38-32-30N, Pituuspiiri: 083-44-36W, korkeus merenpinnasta: 278 m

Tämänhetkinen sää

Tämä raportti tehtiin 20 minuuttia sitten, kello 11.55 UTC
Tuuli 14 kn lännestä puuskistuen 24 kn:hen
Lämpötila 19°C
Kosteus 83%
Ilmanpaine 1008 hPa
Näkyvyys: 16.1 km
Hajonneita pilviä 2400 ft:n korkeudessa
Hajonneita pilviä 3300 ft:n korkeudessa
Pilvistä 4000 ft:n korkeudessa

METAR: KFGX 291155Z AUTO 27014G24KT 10SM BKN024 BKN033 OVC040 19/16 A2978 RMK AO2 T01850161 10190 20170

Aika: 08:15 (12:15 UTC)


TAF: puuttuu

Säähavainnot ja -ennusteet yli 4000 lentoasemalta (METAR- ja TAF-raportit).

Käytössä olevat sääasemat on merkitty karttaan keltaisilla ja punaisilla pisteillä.

Aseta hiiri pisteen päälle nähdäksesi sääaseman nimen.

Klikkaa sitten nähdäksesi säähavainnot ja -ennusteet.

Kartan vaihtaminen: klikkaa mustalla rastilla varustettuja vihreitä pisteitä, niin voit zoomata sisään; viivalla varustettua vihreää pistettä, niin voit zoomata ulos tai vihreitä nuolia, niin pääset viereisille kartoille.


METAR-TAF: